createdAt,value
2019-03-31T00:02:08.907Z,12.02
2019-03-31T00:05:15.381Z,11.84
2019-03-31T00:08:21.653Z,12.02
2019-03-31T00:11:27.912Z,11.49
2019-03-31T00:14:34.207Z,11.75
2019-03-31T00:17:40.448Z,11.54
2019-03-31T00:20:46.681Z,11.31
2019-03-31T00:23:52.932Z,11.88
2019-03-31T00:26:59.347Z,11.62
2019-03-31T00:30:05.953Z,10.91
2019-03-31T00:33:13.397Z,10.65
2019-03-31T00:36:19.636Z,11.13
2019-03-31T00:39:25.865Z,11.67
2019-03-31T00:42:32.204Z,11.87
2019-03-31T00:45:38.703Z,11.95
2019-03-31T00:48:44.939Z,11.80
2019-03-31T00:51:51.190Z,11.85
2019-03-31T00:54:57.453Z,10.98
2019-03-31T00:58:03.670Z,11.37
2019-03-31T01:01:36.272Z,11.15
2019-03-31T01:04:39.387Z,10.69
2019-03-31T01:07:45.794Z,11.03
2019-03-31T01:10:52.010Z,11.15
2019-03-31T01:13:58.638Z,11.41
2019-03-31T01:17:07.088Z,11.10
2019-03-31T01:20:13.493Z,11.19
2019-03-31T01:23:20.867Z,11.31
2019-03-31T01:26:27.207Z,10.99
2019-03-31T01:29:33.597Z,10.82
2019-03-31T01:32:40.376Z,10.70
2019-03-31T01:35:46.610Z,10.66
2019-03-31T01:38:52.825Z,10.84
2019-03-31T01:41:59.219Z,10.46
2019-03-31T01:45:05.714Z,10.80
2019-03-31T01:48:11.941Z,10.97
2019-03-31T01:51:19.226Z,10.59
2019-03-31T01:54:25.444Z,10.12
2019-03-31T01:57:31.766Z,9.53
2019-03-31T02:00:41.261Z,10.22
2019-03-31T02:03:47.783Z,10.37
2019-03-31T02:06:54.102Z,10.33
2019-03-31T02:10:00.373Z,10.30
2019-03-31T02:13:06.676Z,10.31
2019-03-31T02:16:12.934Z,10.24
2019-03-31T02:19:19.145Z,10.04
2019-03-31T02:22:25.410Z,10.29
2019-03-31T02:25:31.636Z,10.37
2019-03-31T02:28:38.945Z,9.78
2019-03-31T02:31:45.213Z,9.25
2019-03-31T02:34:51.457Z,9.55
2019-03-31T02:37:57.748Z,9.20
2019-03-31T02:41:04.052Z,8.94
2019-03-31T02:44:10.302Z,9.85
2019-03-31T02:47:16.555Z,10.02
2019-03-31T02:50:51.096Z,9.22
2019-03-31T02:53:57.492Z,9.66
2019-03-31T02:57:04.709Z,9.98
2019-03-31T03:00:11.054Z,9.54
2019-03-31T03:03:18.113Z,9.46
2019-03-31T03:06:26.329Z,9.71
2019-03-31T03:09:35.936Z,9.55
2019-03-31T03:12:45.857Z,9.26
2019-03-31T03:16:29.024Z,9.67
2019-03-31T03:19:35.391Z,10.04
2019-03-31T03:22:41.665Z,10.12
2019-03-31T03:25:55.764Z,10.08
2019-03-31T03:28:55.985Z,10.21
2019-03-31T03:32:02.347Z,10.20
2019-03-31T03:35:08.737Z,10.21
2019-03-31T03:38:14.983Z,10.39
2019-03-31T03:41:21.201Z,10.22
2019-03-31T03:44:27.447Z,9.75
2019-03-31T03:47:33.719Z,9.01
2019-03-31T03:50:39.998Z,7.68
2019-03-31T03:53:46.348Z,8.79
2019-03-31T03:56:52.552Z,8.89
2019-03-31T03:59:58.763Z,9.24
2019-03-31T04:03:05.144Z,9.59
2019-03-31T04:06:11.418Z,9.80
2019-03-31T04:09:17.647Z,9.99
2019-03-31T04:12:24.919Z,10.07
2019-03-31T04:15:31.198Z,10.10
2019-03-31T04:18:37.490Z,10.05
2019-03-31T04:21:43.771Z,10.03
2019-03-31T04:24:49.963Z,9.53
2019-03-31T04:27:56.222Z,9.03
2019-03-31T04:31:02.504Z,8.83
2019-03-31T04:34:08.764Z,8.89
2019-03-31T04:37:15.105Z,9.40
2019-03-31T04:40:21.427Z,9.51
2019-03-31T04:43:27.636Z,9.30
2019-03-31T04:46:34.015Z,9.80
2019-03-31T04:49:40.413Z,9.97
2019-03-31T04:52:46.665Z,9.93
2019-03-31T04:55:52.967Z,9.87
2019-03-31T04:58:59.176Z,10.07
2019-03-31T05:02:05.515Z,10.19
2019-03-31T05:05:11.780Z,10.38
2019-03-31T05:08:18.001Z,9.69
2019-03-31T05:11:24.326Z,9.89
2019-03-31T05:14:30.527Z,9.37
2019-03-31T05:17:36.769Z,9.38
2019-03-31T05:20:42.975Z,9.68
2019-03-31T05:23:49.219Z,10.14
2019-03-31T05:26:55.457Z,10.41
2019-03-31T05:30:01.686Z,10.66
2019-03-31T05:33:09.063Z,10.92
2019-03-31T05:36:15.427Z,10.81
2019-03-31T05:39:21.650Z,11.34
2019-03-31T05:42:27.986Z,11.45
2019-03-31T05:45:34.227Z,11.66
2019-03-31T05:48:40.445Z,12.07
2019-03-31T05:51:46.733Z,12.30
2019-03-31T05:54:52.949Z,12.66
2019-03-31T05:57:59.270Z,13.00
2019-03-31T06:01:05.561Z,13.08
2019-03-31T06:04:12.125Z,13.12
2019-03-31T06:07:18.371Z,13.45
2019-03-31T06:10:24.904Z,13.61
2019-03-31T06:13:31.127Z,13.84
2019-03-31T06:16:37.518Z,13.80
2019-03-31T06:19:43.739Z,14.08
2019-03-31T06:22:49.997Z,14.40
2019-03-31T06:25:56.201Z,14.39
2019-03-31T06:29:02.443Z,14.47
2019-03-31T06:32:08.698Z,14.81
2019-03-31T06:35:15.009Z,15.01
2019-03-31T06:38:21.331Z,15.13
2019-03-31T06:41:27.548Z,15.23
2019-03-31T06:44:33.810Z,15.57
2019-03-31T06:47:40.121Z,15.88
2019-03-31T06:50:46.387Z,15.93
2019-03-31T06:53:52.770Z,16.03
2019-03-31T06:56:59.170Z,16.08
2019-03-31T07:00:06.198Z,16.34
2019-03-31T07:03:12.505Z,16.10
2019-03-31T07:06:18.835Z,16.35
2019-03-31T07:09:25.067Z,16.86
2019-03-31T07:12:31.414Z,16.45
2019-03-31T07:15:37.639Z,16.87
2019-03-31T07:18:43.918Z,17.29
2019-03-31T07:21:50.274Z,17.36
2019-03-31T07:24:56.913Z,17.56
2019-03-31T07:28:03.149Z,17.88
2019-03-31T07:31:09.564Z,17.58
2019-03-31T07:34:15.775Z,17.42
2019-03-31T07:37:22.136Z,17.82
2019-03-31T07:40:28.511Z,17.43
2019-03-31T07:43:34.695Z,17.08
2019-03-31T07:46:40.998Z,17.61
2019-03-31T07:49:47.694Z,17.81
2019-03-31T07:52:54.101Z,17.36
2019-03-31T07:56:00.372Z,17.96
2019-03-31T07:59:06.651Z,18.03
2019-03-31T08:02:12.983Z,17.15
2019-03-31T08:05:32.345Z,17.26
2019-03-31T08:08:28.209Z,18.10
2019-03-31T08:11:34.518Z,18.66
2019-03-31T08:14:40.841Z,19.06
2019-03-31T08:17:48.468Z,18.90
2019-03-31T08:20:54.728Z,19.26
2019-03-31T08:24:01.024Z,19.68
2019-03-31T08:27:07.757Z,18.64
2019-03-31T08:30:16.472Z,19.72
2019-03-31T08:33:22.721Z,20.18
2019-03-31T08:36:29.018Z,20.31
2019-03-31T08:39:35.365Z,20.61
2019-03-31T08:42:41.589Z,20.40
2019-03-31T08:45:47.950Z,20.95
2019-03-31T08:48:54.174Z,20.96
2019-03-31T08:52:00.450Z,20.96
2019-03-31T08:55:07.763Z,21.13
2019-03-31T08:58:14.031Z,21.38
2019-03-31T09:01:20.662Z,21.41
2019-03-31T09:04:26.873Z,21.62
2019-03-31T09:07:33.124Z,21.31
2019-03-31T09:10:39.362Z,21.55
2019-03-31T09:13:45.648Z,21.04
2019-03-31T09:16:51.963Z,21.77
2019-03-31T09:19:58.172Z,21.67
2019-03-31T09:23:04.530Z,21.83
2019-03-31T09:26:11.004Z,21.53
2019-03-31T09:29:17.534Z,22.27
2019-03-31T09:32:24.185Z,22.59
2019-03-31T09:35:30.420Z,22.31
2019-03-31T09:38:36.779Z,22.96
2019-03-31T09:41:43.080Z,22.58
2019-03-31T09:44:49.630Z,22.97
2019-03-31T09:47:55.968Z,23.06
2019-03-31T09:51:02.221Z,23.42
2019-03-31T09:54:08.680Z,23.19
2019-03-31T09:57:14.974Z,23.55
2019-03-31T10:00:32.258Z,23.52
2019-03-31T10:03:38.591Z,23.50
2019-03-31T10:06:45.081Z,23.52
2019-03-31T10:09:51.822Z,22.63
2019-03-31T10:12:58.195Z,23.31
2019-03-31T10:16:04.415Z,22.77
2019-03-31T10:19:10.666Z,22.95
2019-03-31T10:22:16.929Z,22.41
2019-03-31T10:25:23.135Z,21.89
2019-03-31T10:28:29.405Z,21.60
2019-03-31T10:31:35.679Z,21.15
2019-03-31T10:34:41.933Z,22.23
2019-03-31T10:37:48.251Z,22.01
2019-03-31T10:40:54.487Z,21.89
2019-03-31T10:44:00.730Z,22.43
2019-03-31T10:47:07.151Z,22.62
2019-03-31T10:50:13.632Z,22.50
2019-03-31T10:53:19.867Z,22.58
2019-03-31T10:56:26.084Z,22.50
2019-03-31T10:59:32.319Z,23.01
2019-03-31T11:02:38.607Z,23.15
2019-03-31T11:05:44.827Z,22.96
2019-03-31T11:08:51.227Z,23.30
2019-03-31T11:11:57.495Z,23.45
2019-03-31T11:15:03.938Z,23.24
2019-03-31T11:18:10.228Z,22.96
2019-03-31T11:21:30.686Z,23.40
2019-03-31T11:24:36.947Z,23.48
2019-03-31T11:27:43.964Z,23.16
2019-03-31T11:30:50.525Z,23.59
2019-03-31T11:33:56.738Z,23.05
2019-03-31T11:37:13.483Z,22.80
2019-03-31T11:40:11.334Z,22.98
2019-03-31T11:43:17.658Z,23.37
2019-03-31T11:46:23.870Z,24.01
2019-03-31T11:49:30.232Z,23.58
2019-03-31T11:52:36.655Z,23.60
2019-03-31T11:55:42.869Z,23.39
2019-03-31T11:58:49.129Z,23.74
2019-03-31T12:01:55.418Z,23.51
2019-03-31T12:05:01.634Z,23.12
2019-03-31T12:08:07.859Z,23.39
2019-03-31T12:11:14.156Z,23.27
2019-03-31T12:14:20.491Z,23.11
2019-03-31T12:17:26.757Z,23.29
2019-03-31T12:20:33.064Z,23.10
2019-03-31T12:23:39.422Z,23.69
2019-03-31T12:26:45.629Z,23.55
2019-03-31T12:29:51.924Z,23.06
2019-03-31T12:32:58.402Z,22.60
2019-03-31T12:36:06.653Z,22.66
2019-03-31T12:39:12.925Z,23.28
2019-03-31T12:42:19.122Z,22.50
2019-03-31T12:45:25.465Z,22.17
2019-03-31T12:48:31.902Z,21.87
2019-03-31T12:51:38.314Z,22.60
2019-03-31T12:54:44.565Z,22.52
2019-03-31T12:57:52.046Z,22.54
2019-03-31T13:00:58.684Z,22.32
2019-03-31T13:04:04.884Z,22.43
2019-03-31T13:07:14.665Z,23.07
2019-03-31T13:10:19.107Z,23.21
2019-03-31T13:13:25.328Z,22.76
2019-03-31T13:16:31.540Z,22.59
2019-03-31T13:19:37.845Z,22.69
2019-03-31T13:22:45.881Z,22.43
2019-03-31T13:25:52.055Z,21.78
2019-03-31T13:28:58.462Z,21.93
2019-03-31T13:32:04.786Z,21.89
2019-03-31T13:35:11.133Z,21.71
2019-03-31T13:38:17.368Z,22.34
2019-03-31T13:41:23.607Z,22.93
2019-03-31T13:44:29.814Z,22.24
2019-03-31T13:47:37.182Z,22.52
2019-03-31T13:50:43.419Z,22.87
2019-03-31T13:53:49.651Z,22.86
2019-03-31T13:56:56.655Z,22.65
2019-03-31T14:00:03.569Z,22.75
2019-03-31T14:03:10.023Z,22.59
2019-03-31T14:06:17.772Z,22.68
2019-03-31T14:09:24.027Z,22.11
2019-03-31T14:12:30.276Z,22.24
2019-03-31T14:15:36.681Z,22.12
2019-03-31T14:18:44.028Z,22.23
2019-03-31T14:21:50.291Z,21.97
2019-03-31T14:24:56.511Z,22.14
2019-03-31T14:28:02.763Z,22.01
2019-03-31T14:31:08.967Z,22.24
2019-03-31T14:34:15.386Z,22.07
2019-03-31T14:37:21.685Z,22.05
2019-03-31T14:40:27.912Z,22.03
2019-03-31T14:43:34.145Z,21.60
2019-03-31T14:46:40.355Z,21.62
2019-03-31T14:49:46.651Z,22.02
2019-03-31T14:52:52.829Z,21.56
2019-03-31T14:55:59.072Z,21.46
2019-03-31T14:59:05.503Z,21.73
2019-03-31T15:02:11.889Z,21.57
2019-03-31T15:05:18.132Z,21.75
2019-03-31T15:08:24.406Z,21.43
2019-03-31T15:11:30.690Z,21.55
2019-03-31T15:14:36.875Z,21.36
2019-03-31T15:17:43.174Z,21.39
2019-03-31T15:20:49.350Z,21.07
2019-03-31T15:23:55.592Z,20.75
2019-03-31T15:27:01.988Z,20.81
2019-03-31T15:30:08.634Z,20.52
2019-03-31T15:33:14.859Z,21.12
2019-03-31T15:36:21.166Z,21.53
2019-03-31T15:39:27.412Z,21.02
2019-03-31T15:42:33.669Z,21.12
2019-03-31T15:45:39.938Z,21.04
2019-03-31T15:48:46.207Z,20.75
2019-03-31T15:51:52.494Z,20.61
2019-03-31T15:54:58.761Z,20.70
2019-03-31T15:58:05.563Z,20.35
2019-03-31T16:01:13.544Z,20.33
2019-03-31T16:04:19.810Z,20.23
2019-03-31T16:07:25.977Z,20.15
2019-03-31T16:10:31.679Z,20.10
2019-03-31T16:13:37.346Z,20.06
2019-03-31T16:16:43.034Z,19.92
2019-03-31T16:19:48.835Z,19.58
2019-03-31T16:22:54.493Z,19.41
2019-03-31T16:26:00.190Z,19.48
2019-03-31T16:29:06.050Z,19.43
2019-03-31T16:32:11.732Z,19.40
2019-03-31T16:35:17.452Z,19.24
2019-03-31T16:38:25.676Z,19.17
2019-03-31T16:41:30.535Z,18.96
2019-03-31T16:44:36.347Z,18.96
2019-03-31T16:47:42.043Z,18.79
2019-03-31T16:50:47.898Z,18.67
2019-03-31T16:53:53.563Z,18.80
2019-03-31T16:56:59.619Z,18.80
2019-03-31T17:00:06.246Z,18.80
2019-03-31T17:03:13.155Z,18.80
2019-03-31T17:06:18.990Z,18.76
2019-03-31T17:09:24.685Z,18.76
2019-03-31T17:12:30.457Z,19.02
2019-03-31T17:15:36.184Z,18.84
2019-03-31T17:18:43.168Z,18.66
2019-03-31T17:21:48.848Z,18.66
2019-03-31T17:24:54.588Z,18.77
2019-03-31T17:28:00.406Z,18.63
2019-03-31T17:31:06.459Z,18.63
2019-03-31T17:34:12.155Z,18.58
2019-03-31T17:37:17.963Z,18.24
2019-03-31T17:40:23.650Z,18.43
2019-03-31T17:43:29.353Z,18.60
2019-03-31T17:46:35.102Z,18.67
2019-03-31T17:49:41.122Z,18.28
2019-03-31T17:52:46.892Z,18.50
2019-03-31T17:55:53.677Z,18.50
2019-03-31T17:59:00.655Z,18.30
2019-03-31T18:02:06.681Z,18.17
2019-03-31T18:05:12.638Z,18.05
2019-03-31T18:08:18.384Z,18.07
2019-03-31T18:11:24.170Z,17.70
2019-03-31T18:14:29.880Z,17.68
2019-03-31T18:17:35.653Z,17.77
2019-03-31T18:20:41.377Z,17.85
2019-03-31T18:23:47.144Z,18.17
2019-03-31T18:26:52.887Z,18.42
2019-03-31T18:29:58.635Z,18.31
2019-03-31T18:33:04.525Z,19.01
2019-03-31T18:36:10.290Z,19.01
2019-03-31T18:39:16.049Z,19.08
2019-03-31T18:42:21.759Z,19.14
2019-03-31T18:45:27.485Z,19.57
2019-03-31T18:48:33.289Z,19.46
2019-03-31T18:51:39.041Z,19.13
2019-03-31T18:55:06.612Z,19.32
2019-03-31T18:58:20.185Z,19.46
2019-03-31T19:01:44.767Z,19.41
2019-03-31T19:05:03.787Z,19.07
2019-03-31T19:08:25.195Z,18.74
2019-03-31T19:11:34.961Z,18.63
2019-03-31T19:15:02.402Z,19.24
2019-03-31T19:18:15.286Z,18.48
2019-03-31T19:21:38.398Z,18.45
2019-03-31T19:25:06.055Z,18.41
2019-03-31T19:28:33.500Z,18.04
2019-03-31T19:31:58.374Z,18.54
2019-03-31T19:35:35.046Z,18.78
2019-03-31T19:39:11.791Z,18.40
2019-03-31T19:42:34.920Z,17.94
2019-03-31T19:45:52.152Z,17.80
2019-03-31T19:49:12.415Z,17.41
2019-03-31T19:52:52.008Z,16.85
2019-03-31T19:56:22.521Z,16.50
2019-03-31T19:59:52.952Z,16.57
2019-03-31T20:03:13.403Z,16.15
2019-03-31T20:06:42.431Z,15.87
2019-03-31T20:10:04.725Z,15.74
2019-03-31T20:13:21.043Z,15.89
2019-03-31T20:16:52.834Z,15.59
2019-03-31T20:20:09.555Z,15.90
2019-03-31T20:23:34.312Z,15.58
2019-03-31T20:26:54.886Z,15.53
2019-03-31T20:30:22.542Z,15.44
2019-03-31T20:33:41.255Z,15.55
2019-03-31T20:37:10.182Z,15.12
2019-03-31T20:40:22.649Z,15.27
2019-03-31T20:43:44.289Z,15.17
2019-03-31T20:46:50.159Z,15.10
2019-03-31T20:49:55.897Z,14.91
2019-03-31T20:53:01.562Z,14.58
2019-03-31T20:56:07.296Z,14.54
2019-03-31T20:59:13.070Z,14.62
2019-03-31T21:02:18.863Z,14.52
2019-03-31T21:05:24.580Z,14.47
2019-03-31T21:08:30.321Z,14.62
2019-03-31T21:11:36.084Z,14.17
2019-03-31T21:14:41.860Z,14.31
2019-03-31T21:17:47.593Z,14.34
2019-03-31T21:20:53.293Z,14.22
2019-03-31T21:23:58.995Z,14.31
2019-03-31T21:27:04.660Z,14.38
2019-03-31T21:30:10.718Z,14.14
2019-03-31T21:33:16.390Z,13.75
2019-03-31T21:36:22.089Z,13.99
2019-03-31T21:39:27.757Z,14.12
2019-03-31T21:42:33.498Z,14.11
2019-03-31T21:45:39.369Z,13.90
2019-03-31T21:48:45.087Z,13.94
2019-03-31T21:51:50.791Z,13.78
2019-03-31T21:54:56.617Z,13.69
2019-03-31T21:58:02.333Z,14.12
2019-03-31T22:01:08.122Z,14.11
2019-03-31T22:04:15.112Z,13.82
2019-03-31T22:07:20.879Z,13.49
2019-03-31T22:10:26.562Z,13.65
2019-03-31T22:13:32.383Z,13.80
2019-03-31T22:16:38.183Z,13.90
2019-03-31T22:19:43.908Z,14.09
2019-03-31T22:22:49.577Z,14.04
2019-03-31T22:25:55.271Z,14.01
2019-03-31T22:29:00.955Z,13.99
2019-03-31T22:32:06.681Z,13.76
2019-03-31T22:35:12.472Z,13.84
2019-03-31T22:38:18.141Z,14.17
2019-03-31T22:41:23.948Z,14.35
2019-03-31T22:44:29.878Z,14.31
2019-03-31T22:47:36.681Z,14.37
2019-03-31T22:50:42.376Z,14.37
2019-03-31T22:53:48.073Z,14.05
2019-03-31T22:56:53.748Z,13.94
2019-03-31T22:59:59.503Z,14.01
2019-03-31T23:03:05.265Z,14.02
2019-03-31T23:06:10.950Z,13.79
2019-03-31T23:09:16.677Z,13.37
2019-03-31T23:12:22.350Z,13.56
2019-03-31T23:15:28.081Z,14.07
2019-03-31T23:18:33.888Z,14.13
2019-03-31T23:21:39.668Z,13.54
2019-03-31T23:24:45.348Z,13.73
2019-03-31T23:27:51.041Z,13.24
2019-03-31T23:30:56.728Z,13.31
2019-03-31T23:34:02.415Z,12.79
2019-03-31T23:37:08.104Z,12.55
2019-03-31T23:40:13.916Z,13.04
2019-03-31T23:43:19.683Z,12.84
2019-03-31T23:46:25.345Z,12.68
2019-03-31T23:49:31.108Z,13.27
2019-03-31T23:52:36.850Z,13.52
2019-03-31T23:55:42.612Z,12.19
2019-03-31T23:58:48.292Z,12.87
